createdAt,value
2018-10-16T00:00:13.025Z,8.80
2018-10-16T00:01:13.102Z,8.70
2018-10-16T00:02:12.966Z,8.20
2018-10-16T00:03:13.056Z,9.40
2018-10-16T00:04:12.909Z,9.00
2018-10-16T00:05:14.018Z,8.90
2018-10-16T00:06:12.864Z,9.60
2018-10-16T00:07:12.885Z,8.70
2018-10-16T00:08:12.812Z,8.50
2018-10-16T00:09:12.799Z,9.30
2018-10-16T00:10:12.761Z,9.60
2018-10-16T00:11:12.819Z,9.40
2018-10-16T00:12:12.722Z,9.10
2018-10-16T00:13:12.733Z,9.30
2018-10-16T00:14:12.661Z,9.20
2018-10-16T00:15:12.740Z,9.20
2018-10-16T00:16:12.610Z,9.00
2018-10-16T00:17:12.652Z,9.20
2018-10-16T00:18:12.563Z,9.20
2018-10-16T00:19:12.559Z,10.00
2018-10-16T00:20:12.515Z,9.40
2018-10-16T00:21:12.574Z,9.10
2018-10-16T00:22:12.469Z,9.30
2018-10-16T00:23:13.501Z,9.90
2018-10-16T00:24:12.417Z,10.00
2018-10-16T00:25:18.215Z,8.80
2018-10-16T00:26:12.364Z,9.60
2018-10-16T00:27:28.161Z,9.60
2018-10-16T00:28:12.324Z,9.20
2018-10-16T00:29:23.157Z,9.60
2018-10-16T00:30:12.269Z,9.50
2018-10-16T00:31:18.256Z,9.50
2018-10-16T00:32:12.246Z,10.10
2018-10-16T00:33:25.231Z,9.60
2018-10-16T00:34:12.167Z,9.60
2018-10-16T00:35:16.745Z,9.20
2018-10-16T00:36:12.127Z,9.80
2018-10-16T00:37:12.156Z,9.70
2018-10-16T00:38:12.073Z,9.90
2018-10-16T00:39:12.161Z,9.00
2018-10-16T00:40:12.026Z,9.00
2018-10-16T00:41:12.073Z,9.00
2018-10-16T00:42:11.979Z,10.10
2018-10-16T00:43:11.989Z,8.80
2018-10-16T00:44:11.926Z,9.10
2018-10-16T00:45:11.997Z,9.10
2018-10-16T00:46:11.884Z,8.80
2018-10-16T00:47:11.924Z,9.00
2018-10-16T00:48:11.825Z,8.40
2018-10-16T00:49:11.881Z,8.90
2018-10-16T00:50:11.780Z,8.60
2018-10-16T00:51:11.788Z,9.20
2018-10-16T00:52:11.735Z,9.30
2018-10-16T00:53:11.806Z,7.90
2018-10-16T00:54:11.683Z,8.20
2018-10-16T00:55:11.725Z,8.60
2018-10-16T00:56:11.630Z,8.80
2018-10-16T00:57:11.629Z,8.20
2018-10-16T00:58:11.580Z,8.50
2018-10-16T00:59:11.641Z,8.30
2018-10-16T01:00:11.534Z,8.70
2018-10-16T01:01:11.603Z,9.50
2018-10-16T01:02:11.486Z,9.10
2018-10-16T01:03:11.514Z,9.20
2018-10-16T01:04:11.443Z,9.20
2018-10-16T01:05:11.603Z,8.70
2018-10-16T01:06:11.388Z,8.90
2018-10-16T01:07:11.436Z,9.10
2018-10-16T01:08:11.335Z,8.80
2018-10-16T01:09:11.352Z,9.90
2018-10-16T01:10:11.292Z,10.00
2018-10-16T01:11:11.360Z,9.00
2018-10-16T01:12:11.242Z,9.80
2018-10-16T01:13:11.286Z,9.70
2018-10-16T01:14:11.189Z,10.50
2018-10-16T01:15:12.207Z,9.60
2018-10-16T01:16:11.143Z,9.80
2018-10-16T01:17:11.197Z,9.30
2018-10-16T01:18:11.095Z,10.00
2018-10-16T01:19:11.109Z,10.10
2018-10-16T01:20:11.045Z,9.70
2018-10-16T01:21:15.723Z,10.00
2018-10-16T01:22:11.021Z,10.00
2018-10-16T01:23:17.682Z,9.90
2018-10-16T01:24:10.944Z,10.40
2018-10-16T01:25:22.715Z,10.30
2018-10-16T01:26:10.894Z,11.00
2018-10-16T01:27:10.955Z,10.80
2018-10-16T01:28:10.841Z,10.40
2018-10-16T01:29:15.673Z,10.50
2018-10-16T01:30:10.791Z,10.50
2018-10-16T01:31:11.794Z,10.50
2018-10-16T01:32:10.741Z,10.50
2018-10-16T01:33:10.796Z,11.20
2018-10-16T01:34:10.691Z,10.90
2018-10-16T01:35:10.719Z,10.50
2018-10-16T01:36:10.649Z,10.70
2018-10-16T01:37:10.721Z,11.20
2018-10-16T01:38:10.592Z,10.80
2018-10-16T01:39:10.624Z,10.30
2018-10-16T01:40:10.548Z,12.10
2018-10-16T01:41:22.213Z,10.60
2018-10-16T01:42:10.499Z,9.80
2018-10-16T01:43:10.538Z,11.30
2018-10-16T01:44:10.454Z,12.10
2018-10-16T01:45:10.454Z,12.70
2018-10-16T01:46:10.392Z,13.80
2018-10-16T01:47:10.476Z,13.90
2018-10-16T01:48:10.348Z,14.20
2018-10-16T01:49:10.381Z,14.60
2018-10-16T01:50:10.297Z,14.50
2018-10-16T01:51:10.396Z,14.50
2018-10-16T01:52:10.245Z,13.10
2018-10-16T01:53:10.294Z,13.70
2018-10-16T01:54:10.204Z,14.30
2018-10-16T01:55:10.256Z,15.50
2018-10-16T01:56:10.147Z,14.10
2018-10-16T01:57:10.225Z,14.90
2018-10-16T01:58:10.100Z,15.00
2018-10-16T01:59:10.136Z,15.50
2018-10-16T02:00:10.050Z,15.70
2018-10-16T02:01:10.042Z,15.40
2018-10-16T02:02:09.998Z,15.70
2018-10-16T02:03:10.076Z,15.40
2018-10-16T02:04:09.943Z,16.40
2018-10-16T02:05:09.969Z,14.80
2018-10-16T02:06:09.894Z,15.10
2018-10-16T02:07:09.986Z,16.00
2018-10-16T02:08:09.859Z,15.30
2018-10-16T02:09:09.895Z,15.00
2018-10-16T02:10:09.805Z,14.20
2018-10-16T02:11:09.806Z,14.40
2018-10-16T02:12:09.747Z,14.80
2018-10-16T02:13:09.826Z,14.30
2018-10-16T02:14:09.697Z,14.70
2018-10-16T02:15:09.757Z,15.30
2018-10-16T02:16:09.659Z,14.90
2018-10-16T02:17:09.642Z,13.70
2018-10-16T02:18:09.602Z,14.70
2018-10-16T02:19:09.657Z,13.90
2018-10-16T02:20:09.548Z,14.30
2018-10-16T02:21:09.566Z,14.50
2018-10-16T02:22:09.507Z,15.20
2018-10-16T02:23:09.587Z,15.00
2018-10-16T02:24:09.449Z,14.50
2018-10-16T02:25:09.490Z,13.30
2018-10-16T02:26:09.401Z,14.00
2018-10-16T02:27:09.416Z,13.10
2018-10-16T02:28:09.356Z,12.70
2018-10-16T02:29:09.417Z,13.80
2018-10-16T02:30:09.298Z,13.60
2018-10-16T02:31:10.312Z,13.60
2018-10-16T02:32:09.248Z,13.50
2018-10-16T02:33:11.348Z,14.20
2018-10-16T02:34:09.199Z,14.10
2018-10-16T02:35:09.209Z,15.10
2018-10-16T02:36:09.143Z,14.40
2018-10-16T02:37:09.220Z,13.90
2018-10-16T02:38:09.108Z,14.10
2018-10-16T02:39:13.765Z,12.70
2018-10-16T02:40:09.073Z,13.60
2018-10-16T02:41:15.700Z,12.70
2018-10-16T02:42:08.987Z,13.40
2018-10-16T02:43:15.723Z,13.60
2018-10-16T02:44:08.950Z,13.80
2018-10-16T02:45:13.785Z,14.30
2018-10-16T02:46:08.923Z,14.20
2018-10-16T02:47:08.983Z,14.20
2018-10-16T02:48:08.849Z,14.60
2018-10-16T02:49:10.942Z,14.20
2018-10-16T02:50:08.798Z,14.20
2018-10-16T02:51:08.807Z,14.80
2018-10-16T02:52:08.750Z,14.20
2018-10-16T02:53:08.820Z,14.20
2018-10-16T02:54:08.700Z,14.00
2018-10-16T02:55:08.728Z,15.10
2018-10-16T02:56:08.662Z,14.30
2018-10-16T02:57:15.299Z,14.40
2018-10-16T02:58:08.610Z,14.40
2018-10-16T02:59:08.660Z,14.40
2018-10-16T03:00:08.550Z,15.20
2018-10-16T03:01:09.600Z,15.20
2018-10-16T03:02:08.505Z,14.70
2018-10-16T03:03:15.239Z,14.90
2018-10-16T03:04:08.459Z,14.60
2018-10-16T03:05:08.496Z,15.20
2018-10-16T03:06:08.402Z,15.20
2018-10-16T03:07:09.425Z,14.70
2018-10-16T03:08:08.352Z,14.40
2018-10-16T03:09:13.228Z,15.00
2018-10-16T03:10:08.303Z,14.20
2018-10-16T03:11:08.328Z,14.10
2018-10-16T03:12:08.249Z,14.00
2018-10-16T03:13:13.255Z,14.90
2018-10-16T03:14:08.208Z,14.00
2018-10-16T03:15:08.252Z,14.40
2018-10-16T03:16:08.153Z,14.70
2018-10-16T03:17:09.187Z,14.80
2018-10-16T03:18:08.103Z,14.80
2018-10-16T03:19:24.765Z,13.80
2018-10-16T03:20:08.059Z,13.60
2018-10-16T03:21:18.733Z,13.90
2018-10-16T03:22:07.998Z,13.70
2018-10-16T03:23:07.999Z,13.60
2018-10-16T03:24:07.944Z,13.60
2018-10-16T03:25:08.015Z,15.00
2018-10-16T03:26:07.899Z,14.00
2018-10-16T03:27:19.807Z,13.70
2018-10-16T03:28:07.847Z,13.90
2018-10-16T03:29:08.853Z,13.90
2018-10-16T03:30:07.800Z,14.50
2018-10-16T03:31:13.788Z,14.10
2018-10-16T03:32:07.746Z,14.00
2018-10-16T03:33:14.719Z,13.70
2018-10-16T03:34:07.699Z,14.30
2018-10-16T03:35:18.225Z,13.90
2018-10-16T03:36:07.641Z,13.40
2018-10-16T03:37:09.730Z,13.90
2018-10-16T03:38:07.588Z,13.40
2018-10-16T03:39:08.627Z,13.00
2018-10-16T03:40:07.551Z,13.60
2018-10-16T03:41:07.601Z,13.90
2018-10-16T03:42:07.493Z,13.60
2018-10-16T03:43:07.507Z,12.50
2018-10-16T03:44:07.443Z,13.40
2018-10-16T03:45:07.521Z,13.90
2018-10-16T03:46:07.390Z,13.40
2018-10-16T03:47:07.440Z,14.40
2018-10-16T03:48:07.339Z,13.80
2018-10-16T03:49:07.342Z,14.70
2018-10-16T03:50:07.284Z,13.20
2018-10-16T03:51:07.356Z,13.50
2018-10-16T03:52:07.229Z,13.60
2018-10-16T03:53:07.275Z,13.40
2018-10-16T03:54:07.192Z,13.80
2018-10-16T03:55:07.185Z,13.50
2018-10-16T03:56:07.132Z,14.10
2018-10-16T03:57:07.256Z,13.80
2018-10-16T03:58:07.084Z,13.60
2018-10-16T03:59:07.119Z,14.20
2018-10-16T04:00:07.044Z,13.20
2018-10-16T04:01:07.118Z,13.60
2018-10-16T04:02:06.984Z,13.90
2018-10-16T04:03:07.030Z,13.90
2018-10-16T04:04:06.937Z,13.20
2018-10-16T04:05:06.950Z,13.40
2018-10-16T04:06:06.884Z,13.00
2018-10-16T04:07:06.956Z,14.20
2018-10-16T04:08:06.835Z,13.70
2018-10-16T04:09:06.875Z,13.50
2018-10-16T04:10:06.789Z,13.60
2018-10-16T04:11:06.779Z,13.30
2018-10-16T04:12:06.730Z,13.70
2018-10-16T04:13:06.790Z,14.00
2018-10-16T04:14:06.780Z,14.30
2018-10-16T04:15:06.702Z,13.20
2018-10-16T04:16:06.643Z,14.30
2018-10-16T04:17:06.725Z,14.50
2018-10-16T04:18:06.584Z,13.70
2018-10-16T04:19:06.623Z,14.50
2018-10-16T04:20:06.535Z,13.10
2018-10-16T04:21:06.549Z,13.00
2018-10-16T04:22:06.483Z,13.90
2018-10-16T04:23:06.556Z,13.80
2018-10-16T04:24:06.425Z,13.60
2018-10-16T04:25:06.465Z,13.60
2018-10-16T04:26:06.377Z,14.50
2018-10-16T04:27:06.380Z,13.10
2018-10-16T04:28:06.369Z,14.10
2018-10-16T04:29:06.465Z,14.00
2018-10-16T04:30:06.280Z,13.70
2018-10-16T04:31:06.300Z,13.20
2018-10-16T04:32:06.227Z,13.50
2018-10-16T04:33:06.318Z,14.10
2018-10-16T04:34:06.192Z,14.00
2018-10-16T04:35:06.228Z,13.30
2018-10-16T04:36:06.130Z,13.50
2018-10-16T04:37:06.138Z,13.30
2018-10-16T04:38:06.078Z,13.40
2018-10-16T04:39:06.160Z,14.10
2018-10-16T04:40:06.024Z,13.20
2018-10-16T04:41:06.064Z,14.50
2018-10-16T04:42:05.983Z,13.10
2018-10-16T04:43:05.974Z,14.10
2018-10-16T04:44:05.923Z,13.20
2018-10-16T04:45:05.987Z,14.20
2018-10-16T04:46:05.882Z,14.20
2018-10-16T04:47:05.898Z,15.10
2018-10-16T04:48:05.823Z,14.90
2018-10-16T04:49:05.909Z,14.80
2018-10-16T04:50:05.773Z,14.20
2018-10-16T04:51:05.829Z,14.00
2018-10-16T04:52:05.723Z,15.50
2018-10-16T04:53:05.730Z,14.90
2018-10-16T04:54:05.678Z,14.70
2018-10-16T04:55:05.808Z,14.10
2018-10-16T04:56:05.626Z,14.50
2018-10-16T04:57:05.660Z,14.70
2018-10-16T04:58:05.577Z,14.50
2018-10-16T04:59:05.577Z,14.00
2018-10-16T05:00:05.531Z,13.90
2018-10-16T05:01:05.594Z,14.40
2018-10-16T05:02:05.484Z,15.50
2018-10-16T05:03:05.518Z,15.30
2018-10-16T05:04:05.526Z,14.90
2018-10-16T05:05:05.415Z,15.20
2018-10-16T05:06:05.368Z,15.70
2018-10-16T05:07:05.422Z,15.40
2018-10-16T05:08:05.329Z,14.80
2018-10-16T05:09:05.335Z,14.80
2018-10-16T05:10:05.280Z,14.30
2018-10-16T05:11:05.352Z,15.30
2018-10-16T05:12:05.217Z,15.10
2018-10-16T05:13:05.305Z,15.40
2018-10-16T05:14:05.171Z,15.60
2018-10-16T05:15:05.171Z,15.00
2018-10-16T05:16:05.113Z,15.20
2018-10-16T05:17:05.182Z,15.30
2018-10-16T05:18:05.077Z,14.00
2018-10-16T05:19:05.194Z,14.80
2018-10-16T05:20:05.014Z,14.90
2018-10-16T05:21:05.108Z,14.50
2018-10-16T05:22:04.969Z,14.50
2018-10-16T05:23:05.016Z,14.30
2018-10-16T05:24:04.916Z,15.00
2018-10-16T05:25:04.935Z,14.60
2018-10-16T05:26:04.870Z,14.80
2018-10-16T05:27:04.956Z,13.70
2018-10-16T05:28:04.823Z,14.50
2018-10-16T05:29:04.854Z,14.30
2018-10-16T05:30:04.765Z,13.80
2018-10-16T05:31:04.849Z,14.80
2018-10-16T05:32:04.713Z,14.50
2018-10-16T05:33:04.779Z,14.70
2018-10-16T05:34:04.673Z,15.20
2018-10-16T05:35:04.698Z,14.70
2018-10-16T05:36:04.621Z,14.20
2018-10-16T05:37:04.607Z,13.20
2018-10-16T05:38:04.576Z,14.90
2018-10-16T05:39:04.665Z,13.70
2018-10-16T05:40:04.514Z,13.90
2018-10-16T05:41:04.542Z,13.30
2018-10-16T05:42:04.490Z,14.60
2018-10-16T05:43:04.544Z,13.90
2018-10-16T05:44:04.421Z,14.10
2018-10-16T05:45:04.435Z,14.20
2018-10-16T05:46:04.361Z,14.90
2018-10-16T05:47:06.359Z,14.80
2018-10-16T05:48:04.315Z,14.50
2018-10-16T05:49:04.359Z,14.40
2018-10-16T05:50:04.265Z,14.30
2018-10-16T05:51:04.270Z,14.50
2018-10-16T05:52:04.224Z,12.60
2018-10-16T05:53:04.190Z,14.10
2018-10-16T05:54:04.162Z,14.30
2018-10-16T05:55:04.197Z,15.70
2018-10-16T05:56:04.113Z,14.50
2018-10-16T05:57:05.135Z,15.10
2018-10-16T05:58:04.077Z,15.00
2018-10-16T05:59:04.041Z,15.50
2018-10-16T06:00:04.021Z,15.30
2018-10-16T06:01:04.029Z,14.60
2018-10-16T06:02:03.966Z,14.40
2018-10-16T06:03:04.978Z,14.90
2018-10-16T06:04:03.917Z,14.60
2018-10-16T06:05:03.953Z,14.50
2018-10-16T06:06:03.861Z,14.10
2018-10-16T06:07:03.836Z,14.80
2018-10-16T06:08:03.819Z,13.50
2018-10-16T06:09:03.835Z,14.00
2018-10-16T06:10:03.771Z,14.70
2018-10-16T06:11:10.809Z,14.70
2018-10-16T06:12:03.718Z,14.60
2018-10-16T06:13:14.302Z,15.10
2018-10-16T06:14:03.659Z,15.30
2018-10-16T06:15:05.720Z,14.90
2018-10-16T06:16:03.652Z,14.60
2018-10-16T06:17:03.678Z,15.00
2018-10-16T06:18:03.562Z,15.30
2018-10-16T06:19:04.619Z,15.10
2018-10-16T06:20:03.536Z,15.70
2018-10-16T06:21:04.525Z,16.00
2018-10-16T06:22:03.465Z,15.40
2018-10-16T06:26:40.694Z,17.00
2018-10-16T06:28:54.196Z,16.50
2018-10-16T06:30:00.194Z,15.40
2018-10-16T06:30:54.135Z,15.50
2018-10-16T06:32:01.126Z,15.60
2018-10-16T06:32:54.083Z,16.00
2018-10-16T06:33:54.173Z,15.80
2018-10-16T06:34:54.024Z,16.00
2018-10-16T06:35:59.613Z,16.00
2018-10-16T06:36:53.989Z,15.80
2018-10-16T06:38:05.670Z,15.60
2018-10-16T06:38:53.931Z,15.80
2018-10-16T06:39:54.008Z,16.10
2018-10-16T06:40:54.096Z,16.50
2018-10-16T06:41:53.924Z,16.60
2018-10-16T06:42:53.829Z,16.50
2018-10-16T06:43:53.861Z,16.80
2018-10-16T06:44:53.782Z,16.90
2018-10-16T06:45:53.759Z,15.90
2018-10-16T06:46:53.731Z,17.10
2018-10-16T06:47:53.803Z,15.90
2018-10-16T06:48:54.925Z,16.40
2018-10-16T06:49:53.653Z,16.20
2018-10-16T06:50:54.698Z,16.50
2018-10-16T06:51:53.610Z,15.50
2018-10-16T06:52:53.688Z,16.10
2018-10-16T06:53:53.556Z,15.20
2018-10-16T06:54:55.585Z,16.70
2018-10-16T06:55:53.504Z,16.80
2018-10-16T06:57:05.199Z,16.50
2018-10-16T06:57:53.451Z,17.00
2018-10-16T06:58:58.137Z,16.60
2018-10-16T06:59:53.397Z,16.30
2018-10-16T07:01:06.136Z,16.70
2018-10-16T07:01:53.350Z,17.20
2018-10-16T07:02:58.162Z,17.50
2018-10-16T07:03:53.301Z,17.80
2018-10-16T07:05:06.161Z,17.10
2018-10-16T07:05:53.242Z,17.20
2018-10-16T07:06:53.361Z,17.10
2018-10-16T07:07:53.196Z,16.90
2018-10-16T07:08:54.220Z,16.80
2018-10-16T07:09:53.144Z,16.70
2018-10-16T07:10:59.146Z,16.30
2018-10-16T07:11:53.100Z,15.10
2018-10-16T07:12:53.068Z,15.80
2018-10-16T07:13:53.036Z,16.30
2018-10-16T07:14:55.129Z,17.20
2018-10-16T07:15:52.990Z,17.40
2018-10-16T07:16:53.052Z,17.80
2018-10-16T07:17:52.944Z,16.80
2018-10-16T07:18:59.619Z,17.00
2018-10-16T07:19:52.887Z,16.50
2018-10-16T07:20:53.904Z,17.30
2018-10-16T07:21:52.849Z,16.60
2018-10-16T07:22:52.894Z,16.70
2018-10-16T07:23:52.840Z,16.80
2018-10-16T07:24:52.905Z,17.50
2018-10-16T07:25:52.761Z,17.10
2018-10-16T07:26:52.808Z,17.00
2018-10-16T07:27:52.676Z,16.10
2018-10-16T07:28:54.774Z,17.70
2018-10-16T07:29:52.682Z,16.50
2018-10-16T07:30:52.641Z,17.50
2018-10-16T07:31:52.589Z,16.40
2018-10-16T07:32:52.563Z,17.70
2018-10-16T07:33:52.551Z,16.80
2018-10-16T07:34:54.550Z,16.10
2018-10-16T07:35:52.479Z,15.60
2018-10-16T07:36:52.508Z,16.00
2018-10-16T07:37:52.475Z,15.90
2018-10-16T07:38:52.435Z,17.50
2018-10-16T07:39:52.430Z,16.00
2018-10-16T07:40:52.352Z,14.90
2018-10-16T07:41:52.471Z,15.60
2018-10-16T07:42:52.312Z,16.10
2018-10-16T07:43:52.360Z,15.40
2018-10-16T07:44:52.305Z,16.10
2018-10-16T07:45:53.809Z,15.30
2018-10-16T07:46:52.746Z,15.40
2018-10-16T07:47:52.286Z,14.70
2018-10-16T07:48:52.144Z,15.00
2018-10-16T07:49:52.140Z,14.10
2018-10-16T07:50:52.096Z,14.60
2018-10-16T07:51:56.710Z,15.10
2018-10-16T07:52:52.046Z,15.00
2018-10-16T07:53:56.625Z,15.40
2018-10-16T07:54:51.983Z,15.40
2018-10-16T07:55:53.052Z,15.30
2018-10-16T07:56:51.936Z,16.30
2018-10-16T07:57:51.946Z,15.90
2018-10-16T07:58:51.896Z,17.30
2018-10-16T07:59:58.609Z,16.50
2018-10-16T08:01:05.396Z,17.00
2018-10-16T08:03:25.219Z,16.80
2018-10-16T08:04:27.207Z,16.70
2018-10-16T08:06:19.887Z,15.50
2018-10-16T08:07:19.763Z,16.50
2018-10-16T08:08:20.782Z,15.30
2018-10-16T08:09:19.710Z,16.90
2018-10-16T08:10:19.772Z,15.80
2018-10-16T08:11:19.739Z,15.40
2018-10-16T08:12:19.689Z,15.30
2018-10-16T08:13:19.617Z,15.90
2018-10-16T08:14:19.697Z,14.70
2018-10-16T08:15:19.559Z,15.40
2018-10-16T08:16:19.609Z,15.00
2018-10-16T08:17:19.595Z,14.90
2018-10-16T08:18:19.515Z,15.20
2018-10-16T08:19:19.468Z,14.20
2018-10-16T08:20:25.170Z,14.50
2018-10-16T08:21:19.409Z,14.80
2018-10-16T08:22:21.503Z,14.60
2018-10-16T08:23:19.352Z,14.00
2018-10-16T08:24:19.349Z,15.00
2018-10-16T08:25:19.312Z,14.10
2018-10-16T08:26:19.365Z,15.00
2018-10-16T08:27:19.247Z,14.20
2018-10-16T08:28:19.261Z,15.00
2018-10-16T08:29:19.211Z,14.70
2018-10-16T08:30:19.296Z,14.30
2018-10-16T08:31:19.151Z,14.30
2018-10-16T08:32:19.180Z,14.10
2018-10-16T08:33:19.100Z,14.00
2018-10-16T08:34:19.214Z,14.30
2018-10-16T08:35:19.044Z,14.30
2018-10-16T08:36:19.153Z,14.00
2018-10-16T08:37:19.229Z,14.40
2018-10-16T08:38:18.972Z,14.90
2018-10-16T08:39:19.159Z,14.10
2018-10-16T08:40:18.917Z,14.80
2018-10-16T08:41:19.039Z,13.70
2018-10-16T08:42:18.905Z,14.10
2018-10-16T08:43:18.944Z,14.20
2018-10-16T08:44:18.814Z,13.90
2018-10-16T08:45:18.857Z,13.80
2018-10-16T08:46:18.769Z,14.30
2018-10-16T08:47:18.828Z,14.40
2018-10-16T08:48:18.709Z,13.50
2018-10-16T08:49:18.797Z,13.50
2018-10-16T08:50:18.664Z,14.60
2018-10-16T08:51:18.659Z,13.90
2018-10-16T08:52:19.726Z,14.30
2018-10-16T08:53:18.595Z,14.10
2018-10-16T08:54:18.619Z,13.40
2018-10-16T08:55:18.534Z,13.70
2018-10-16T08:56:18.533Z,14.50
2018-10-16T08:57:18.480Z,14.30
2018-10-16T08:58:18.651Z,14.00
2018-10-16T08:59:18.423Z,13.20
2018-10-16T09:00:18.413Z,13.80
2018-10-16T09:01:18.376Z,14.80
2018-10-16T09:02:19.422Z,13.50
2018-10-16T09:03:18.335Z,13.90
2018-10-16T09:04:18.311Z,14.70
2018-10-16T09:05:18.279Z,13.90
2018-10-16T09:06:18.328Z,14.20
2018-10-16T09:07:18.234Z,14.10
2018-10-16T09:08:18.241Z,14.70
2018-10-16T09:09:18.180Z,14.50
2018-10-16T09:10:18.148Z,15.00
2018-10-16T09:11:18.154Z,13.70
2018-10-16T09:12:18.103Z,13.80
2018-10-16T09:13:18.093Z,14.30
2018-10-16T09:14:18.077Z,13.70
2018-10-16T09:15:18.029Z,13.60
2018-10-16T09:16:18.088Z,13.80
2018-10-16T09:17:17.972Z,14.30
2018-10-16T09:18:17.999Z,13.20
2018-10-16T09:19:17.939Z,13.50
2018-10-16T09:20:17.906Z,13.00
2018-10-16T09:21:17.874Z,14.10
2018-10-16T09:22:17.859Z,14.40
2018-10-16T09:23:17.833Z,13.70
2018-10-16T09:24:17.796Z,13.20
2018-10-16T09:25:17.783Z,12.40
2018-10-16T09:26:17.850Z,13.50
2018-10-16T09:27:17.724Z,12.80
2018-10-16T09:28:17.716Z,14.10
2018-10-16T09:29:17.670Z,14.10
2018-10-16T09:30:17.645Z,12.70
2018-10-16T09:31:17.622Z,14.00
2018-10-16T09:32:17.601Z,13.50
2018-10-16T09:34:05.291Z,13.00
2018-10-16T09:35:06.349Z,13.20
2018-10-16T09:36:05.204Z,14.00
2018-10-16T09:37:05.180Z,13.30
2018-10-16T09:38:05.289Z,13.50
2018-10-16T09:39:05.135Z,13.30
2018-10-16T09:40:05.111Z,14.10
2018-10-16T09:41:05.152Z,13.50
2018-10-16T09:42:05.055Z,13.90
2018-10-16T09:43:05.069Z,14.70
2018-10-16T09:44:05.007Z,13.70
2018-10-16T09:45:05.075Z,13.40
2018-10-16T09:46:04.953Z,14.10
2018-10-16T09:47:04.930Z,14.50
2018-10-16T09:48:04.905Z,13.20
2018-10-16T09:49:04.883Z,13.30
2018-10-16T09:50:04.856Z,12.20
2018-10-16T09:51:04.856Z,12.60
2018-10-16T09:52:04.813Z,12.60
2018-10-16T09:53:05.854Z,12.70
2018-10-16T09:54:04.749Z,11.90
2018-10-16T09:55:04.840Z,11.60
2018-10-16T09:56:04.703Z,12.70
2018-10-16T09:57:04.756Z,12.50
2018-10-16T09:58:04.663Z,11.60
2018-10-16T09:59:04.659Z,11.60
2018-10-16T10:00:04.605Z,12.80
2018-10-16T10:01:04.683Z,12.40
2018-10-16T10:02:04.555Z,12.40
2018-10-16T10:03:09.293Z,12.90
2018-10-16T10:04:04.504Z,13.30
2018-10-16T10:05:04.501Z,12.60
2018-10-16T10:06:04.473Z,12.50
2018-10-16T10:07:04.507Z,11.70
2018-10-16T10:08:04.418Z,11.80
2018-10-16T10:09:04.465Z,11.60
2018-10-16T10:10:04.357Z,11.80
2018-10-16T10:11:04.455Z,12.10
2018-10-16T10:12:04.319Z,12.00
2018-10-16T10:13:04.295Z,11.30
2018-10-16T10:14:04.336Z,12.10
2018-10-16T10:15:04.264Z,11.50
2018-10-16T10:16:04.348Z,12.10
2018-10-16T10:17:04.180Z,12.30
2018-10-16T10:18:04.185Z,12.00
2018-10-16T10:19:04.265Z,11.40
2018-10-16T10:20:04.112Z,11.80
2018-10-16T10:21:04.087Z,11.90
2018-10-16T10:22:04.161Z,12.10
2018-10-16T10:23:04.043Z,12.20
2018-10-16T10:24:04.070Z,13.00
2018-10-16T10:25:04.046Z,12.20
2018-10-16T10:26:03.962Z,12.40
2018-10-16T10:27:03.936Z,11.90
2018-10-16T10:28:04.013Z,12.50
2018-10-16T10:29:03.893Z,11.30
2018-10-16T10:30:03.867Z,12.60
2018-10-16T10:32:12.388Z,12.10
2018-10-16T10:34:36.071Z,11.90
2018-10-16T10:35:36.125Z,11.80
2018-10-16T10:37:30.713Z,12.40
2018-10-16T10:38:30.597Z,11.90
2018-10-16T10:39:30.692Z,11.40
2018-10-16T10:40:30.553Z,11.90
2018-10-16T10:41:31.625Z,11.90
2018-10-16T10:42:30.510Z,11.80
2018-10-16T10:43:30.481Z,11.50
2018-10-16T10:44:30.454Z,11.70
2018-10-16T10:45:30.524Z,12.00
2018-10-16T10:46:30.404Z,11.60
2018-10-16T10:47:31.465Z,11.70
2018-10-16T10:48:30.357Z,10.90
2018-10-16T10:49:30.334Z,11.00
2018-10-16T10:50:30.418Z,10.90
2018-10-16T10:51:30.482Z,10.90
2018-10-16T10:52:30.256Z,10.60
2018-10-16T10:53:30.233Z,10.20
2018-10-16T10:54:30.225Z,10.90
2018-10-16T10:55:30.192Z,11.30
2018-10-16T10:56:30.184Z,10.80
2018-10-16T10:57:30.133Z,10.30
2018-10-16T10:59:18.577Z,11.30
2018-10-16T11:00:18.565Z,11.00
2018-10-16T11:01:18.493Z,11.00
2018-10-16T11:02:18.462Z,10.70
2018-10-16T11:03:18.532Z,10.60
2018-10-16T11:04:18.411Z,11.30
2018-10-16T11:05:18.387Z,10.50
2018-10-16T11:06:18.365Z,11.60
2018-10-16T11:07:18.402Z,11.20
2018-10-16T11:08:18.314Z,11.20
2018-10-16T11:09:18.307Z,10.90
2018-10-16T11:10:18.267Z,9.80
2018-10-16T11:11:18.248Z,9.50
2018-10-16T11:12:18.247Z,9.70
2018-10-16T11:13:18.202Z,10.80
2018-10-16T11:14:18.169Z,9.60
2018-10-16T11:15:18.147Z,9.60
2018-10-16T11:16:18.125Z,10.40
2018-10-16T11:17:18.102Z,9.70
2018-10-16T11:18:18.070Z,10.10
2018-10-16T11:19:18.130Z,8.90
2018-10-16T11:20:18.044Z,9.90
2018-10-16T11:21:18.000Z,9.40
2018-10-16T11:22:17.986Z,10.40
2018-10-16T11:23:17.965Z,9.40
2018-10-16T11:24:17.933Z,9.30
2018-10-16T11:25:17.915Z,9.60
2018-10-16T11:26:17.888Z,10.10
2018-10-16T11:27:17.866Z,10.40
2018-10-16T11:28:17.839Z,9.10
2018-10-16T11:29:17.924Z,9.70
2018-10-16T11:30:17.903Z,9.50
2018-10-16T11:31:17.785Z,8.90
2018-10-16T11:32:17.742Z,8.60
2018-10-16T11:33:17.733Z,8.40
2018-10-16T11:35:09.437Z,9.30
2018-10-16T11:36:09.397Z,8.90
2018-10-16T11:37:09.546Z,8.50
2018-10-16T11:38:09.352Z,8.50
2018-10-16T11:39:09.365Z,8.60
2018-10-16T11:40:09.411Z,8.10
2018-10-16T11:41:09.305Z,8.80
2018-10-16T11:42:09.257Z,8.40
2018-10-16T11:43:09.232Z,9.00
2018-10-16T11:44:09.324Z,9.20
2018-10-16T11:45:09.246Z,9.30
2018-10-16T11:46:09.241Z,8.80
2018-10-16T11:47:09.138Z,9.50
2018-10-16T11:48:09.106Z,8.90
2018-10-16T11:49:09.094Z,8.70
2018-10-16T11:50:09.110Z,8.90
2018-10-16T11:51:09.045Z,9.10
2018-10-16T11:52:09.047Z,8.40
2018-10-16T11:53:08.993Z,8.60
2018-10-16T11:54:08.971Z,8.30
2018-10-16T11:55:08.949Z,9.70
2018-10-16T11:56:09.001Z,8.50
2018-10-16T11:57:09.001Z,8.50
2018-10-16T11:58:08.873Z,8.80
2018-10-16T11:59:09.991Z,7.70
2018-10-16T12:00:08.827Z,7.90
2018-10-16T12:01:08.821Z,7.80
2018-10-16T12:02:08.904Z,8.00
2018-10-16T12:03:08.845Z,7.90
2018-10-16T12:04:08.736Z,8.40
2018-10-16T12:05:56.091Z,7.70
2018-10-16T12:06:56.207Z,7.20
2018-10-16T12:07:56.043Z,8.00
2018-10-16T12:08:56.090Z,7.60
2018-10-16T12:09:55.945Z,7.30
2018-10-16T12:10:56.054Z,9.10
2018-10-16T12:11:55.894Z,7.60
2018-10-16T12:12:55.867Z,6.90
2018-10-16T12:13:55.884Z,6.80
2018-10-16T12:14:55.920Z,7.50
2018-10-16T12:15:55.772Z,7.70
2018-10-16T12:16:55.865Z,6.40
2018-10-16T12:17:55.735Z,6.70
2018-10-16T12:18:57.826Z,7.00
2018-10-16T12:19:55.683Z,6.20
2018-10-16T12:20:55.697Z,7.10
2018-10-16T12:21:55.640Z,7.10
2018-10-16T12:22:55.624Z,7.20
2018-10-16T12:23:55.625Z,7.10
2018-10-16T12:24:42.061Z,8.30
2018-10-16T12:25:42.074Z,7.00
2018-10-16T12:27:41.235Z,7.40
2018-10-16T12:28:39.863Z,6.70
2018-10-16T12:29:39.847Z,6.80
2018-10-16T12:30:39.817Z,6.80
2018-10-16T12:31:39.796Z,6.30
2018-10-16T12:32:39.776Z,6.10
2018-10-16T12:33:39.882Z,6.40
2018-10-16T12:34:39.724Z,6.40
2018-10-16T12:35:39.888Z,5.80
2018-10-16T12:36:39.674Z,5.90
2018-10-16T12:37:39.782Z,6.30
2018-10-16T12:38:39.672Z,5.10
2018-10-16T12:39:39.815Z,5.20
2018-10-16T12:40:39.583Z,5.10
2018-10-16T12:41:41.679Z,4.90
2018-10-16T12:42:39.557Z,5.30
2018-10-16T12:43:39.625Z,5.40
2018-10-16T12:44:39.511Z,5.90
2018-10-16T12:45:39.651Z,5.10
2018-10-16T12:46:39.453Z,5.80
2018-10-16T12:47:39.456Z,5.90
2018-10-16T12:48:35.955Z,6.90
2018-10-16T12:49:36.085Z,6.50
2018-10-16T12:50:35.900Z,5.60
2018-10-16T12:51:36.000Z,5.80
2018-10-16T12:52:35.843Z,6.20
2018-10-16T12:53:35.819Z,6.30
2018-10-16T12:54:35.923Z,6.00
2018-10-16T12:55:35.777Z,6.00
2018-10-16T12:56:35.793Z,5.60
2018-10-16T12:57:35.731Z,5.30
2018-10-16T12:58:35.708Z,5.50
2018-10-16T12:59:35.701Z,5.50
2018-10-16T13:00:35.663Z,5.30
2018-10-16T13:01:35.880Z,6.60
2018-10-16T13:02:35.643Z,5.90
2018-10-16T13:03:35.645Z,6.10
2018-10-16T13:04:35.579Z,6.30
2018-10-16T13:05:35.692Z,5.80
2018-10-16T13:06:35.577Z,6.00
2018-10-16T13:07:36.620Z,5.90
2018-10-16T13:08:35.484Z,6.00
2018-10-16T13:09:35.611Z,5.80
2018-10-16T13:10:35.615Z,6.40
2018-10-16T13:11:35.531Z,6.20
2018-10-16T13:12:35.395Z,5.90